createdAt,value
2022-08-24T00:00:39.236Z,22.67
2022-08-24T00:03:07.502Z,22.62
2022-08-24T00:05:36.644Z,22.58
2022-08-24T00:08:03.917Z,22.50
2022-08-24T00:10:30.568Z,22.48
2022-08-24T00:12:57.963Z,22.46
2022-08-24T00:15:24.848Z,22.43
2022-08-24T00:17:54.370Z,22.40
2022-08-24T00:20:23.449Z,22.39
2022-08-24T00:22:49.929Z,22.36
2022-08-24T00:25:17.870Z,22.33
2022-08-24T00:27:47.065Z,22.32
2022-08-24T00:30:15.852Z,22.28
2022-08-24T00:35:13.684Z,22.24
2022-08-24T00:37:41.243Z,22.20
2022-08-24T00:40:13.780Z,22.13
2022-08-24T00:42:41.350Z,22.16
2022-08-24T00:45:10.808Z,22.14
2022-08-24T00:47:51.600Z,22.13
2022-08-24T00:50:24.332Z,22.10
2022-08-24T00:52:58.083Z,22.07
2022-08-24T00:55:36.659Z,22.04
2022-08-24T00:58:15.577Z,21.95
2022-08-24T01:00:48.785Z,21.98
2022-08-24T01:03:18.382Z,21.98
2022-08-24T01:05:46.052Z,21.92
2022-08-24T01:08:14.098Z,21.91
2022-08-24T01:10:49.846Z,21.89
2022-08-24T01:13:16.705Z,21.88
2022-08-24T01:15:47.782Z,21.86
2022-08-24T01:18:42.626Z,21.86
2022-08-24T01:21:38.041Z,21.83
2022-08-24T01:24:12.992Z,21.79
2022-08-24T01:26:45.874Z,21.78
2022-08-24T01:29:24.452Z,21.76
2022-08-24T01:31:52.699Z,21.73
2022-08-24T01:34:21.992Z,21.72
2022-08-24T01:36:51.601Z,21.70
2022-08-24T01:39:26.733Z,21.64
2022-08-24T01:41:54.150Z,21.60
2022-08-24T01:44:24.939Z,21.55
2022-08-24T01:46:54.108Z,21.57
2022-08-24T01:49:28.714Z,21.54
2022-08-24T01:51:55.677Z,21.51
2022-08-24T01:54:25.406Z,21.50
2022-08-24T01:56:52.223Z,21.47
2022-08-24T01:59:20.287Z,21.46
2022-08-24T02:01:52.214Z,21.39
2022-08-24T02:04:18.966Z,21.34
2022-08-24T02:06:48.081Z,21.30
2022-08-24T02:09:16.851Z,21.33
2022-08-24T02:11:48.273Z,21.26
2022-08-24T02:14:14.878Z,21.24
2022-08-24T02:16:42.049Z,21.12
2022-08-24T02:19:08.692Z,21.11
2022-08-24T02:21:40.111Z,21.05
2022-08-24T02:24:07.402Z,21.08
2022-08-24T02:26:36.085Z,20.99
2022-08-24T02:29:04.857Z,21.03
2022-08-24T02:31:31.478Z,21.02
2022-08-24T02:33:58.180Z,20.91
2022-08-24T02:36:26.005Z,20.93
2022-08-24T02:38:58.441Z,20.95
2022-08-24T02:41:25.757Z,20.93
2022-08-24T02:43:53.605Z,20.89
2022-08-24T02:46:22.958Z,20.87
2022-08-24T02:48:58.106Z,20.85
2022-08-24T02:51:44.108Z,20.79
2022-08-24T02:54:14.059Z,20.78
2022-08-24T02:56:43.928Z,20.77
2022-08-24T02:59:12.637Z,20.74
2022-08-24T03:01:39.581Z,20.72
2022-08-24T03:04:06.310Z,20.68
2022-08-24T03:06:33.587Z,20.67
2022-08-24T03:09:02.336Z,20.67
2022-08-24T03:11:29.016Z,20.66
2022-08-24T03:13:59.189Z,20.59
2022-08-24T03:16:27.334Z,20.58
2022-08-24T03:18:54.024Z,20.50
2022-08-24T03:21:23.720Z,20.53
2022-08-24T03:23:50.390Z,20.46
2022-08-24T03:26:17.167Z,20.41
2022-08-24T03:28:44.503Z,20.48
2022-08-24T03:31:12.427Z,20.43
2022-08-24T03:33:39.094Z,20.47
2022-08-24T03:36:06.222Z,20.46
2022-08-24T03:38:32.812Z,20.42
2022-08-24T03:40:59.374Z,20.40
2022-08-24T03:43:44.976Z,20.38
2022-08-24T03:46:12.443Z,20.33
2022-08-24T03:48:44.280Z,20.35
2022-08-24T03:51:13.105Z,20.38
2022-08-24T03:53:42.470Z,20.35
2022-08-24T03:56:11.085Z,20.28
2022-08-24T03:58:41.691Z,20.28
2022-08-24T04:01:09.260Z,20.28
2022-08-24T04:03:38.424Z,20.26
2022-08-24T04:06:05.751Z,20.19
2022-08-24T04:08:35.053Z,20.22
2022-08-24T04:11:02.632Z,20.22
2022-08-24T04:13:32.038Z,20.22
2022-08-24T04:16:10.126Z,20.14
2022-08-24T04:18:37.091Z,20.19
2022-08-24T04:21:04.196Z,20.19
2022-08-24T04:23:47.684Z,20.14
2022-08-24T04:26:43.920Z,20.10
2022-08-24T04:29:09.449Z,20.07
2022-08-24T04:31:38.049Z,20.04
2022-08-24T04:34:09.921Z,20.02
2022-08-24T04:36:36.506Z,19.98
2022-08-24T04:39:03.656Z,19.90
2022-08-24T04:41:31.324Z,19.93
2022-08-24T04:43:59.412Z,19.92
2022-08-24T04:46:26.910Z,19.90
2022-08-24T04:48:55.985Z,19.88
2022-08-24T04:51:25.024Z,19.90
2022-08-24T04:53:51.825Z,19.84
2022-08-24T04:56:26.314Z,19.92
2022-08-24T04:58:55.548Z,19.93
2022-08-24T05:01:24.664Z,19.99
2022-08-24T05:03:54.154Z,20.07
2022-08-24T05:06:23.199Z,20.13
2022-08-24T05:08:52.027Z,20.12
2022-08-24T05:11:20.710Z,20.16
2022-08-24T05:13:48.204Z,20.17
2022-08-24T05:16:17.873Z,20.19
2022-08-24T05:18:48.317Z,20.15
2022-08-24T05:21:17.795Z,20.37
2022-08-24T05:23:47.873Z,20.98
2022-08-24T05:26:26.073Z,22.31
2022-08-24T05:29:00.555Z,23.42
2022-08-24T05:31:29.865Z,24.40
2022-08-24T05:33:57.822Z,25.18
2022-08-24T05:36:30.701Z,25.83
2022-08-24T05:39:00.644Z,26.59
2022-08-24T05:41:28.488Z,27.18
2022-08-24T05:43:55.655Z,27.81
2022-08-24T05:46:22.550Z,27.80
2022-08-24T05:48:52.819Z,26.28
2022-08-24T05:51:20.790Z,25.18
2022-08-24T05:53:47.799Z,25.53
2022-08-24T05:56:17.094Z,27.41
2022-08-24T05:58:44.431Z,28.70
2022-08-24T06:01:19.091Z,29.99
2022-08-24T06:03:45.803Z,30.96
2022-08-24T06:06:13.517Z,31.85
2022-08-24T06:08:43.276Z,32.67
2022-08-24T06:11:12.890Z,33.45
2022-08-24T06:13:41.705Z,33.97
2022-08-24T06:16:22.225Z,34.36
2022-08-24T06:18:49.936Z,34.72
2022-08-24T06:21:20.204Z,35.00
2022-08-24T06:23:48.143Z,35.54
2022-08-24T06:26:33.657Z,35.77
2022-08-24T06:29:03.186Z,36.25
2022-08-24T06:31:30.008Z,36.73
2022-08-24T06:34:06.103Z,37.36
2022-08-24T06:36:32.680Z,37.87
2022-08-24T06:38:59.739Z,37.89
2022-08-24T06:41:26.652Z,37.78
2022-08-24T06:43:53.322Z,37.04
2022-08-24T06:46:32.022Z,37.44
2022-08-24T06:48:59.493Z,37.23
2022-08-24T06:51:26.029Z,36.64
2022-08-24T06:53:56.242Z,36.33
2022-08-24T06:56:23.033Z,36.55
2022-08-24T06:58:49.775Z,36.54
2022-08-24T07:01:22.953Z,36.02
2022-08-24T07:03:50.139Z,36.21
2022-08-24T07:06:18.199Z,36.27
2022-08-24T07:08:44.865Z,37.01
2022-08-24T07:11:14.905Z,37.16
2022-08-24T07:13:42.009Z,38.13
2022-08-24T07:16:10.180Z,39.03
2022-08-24T07:18:37.529Z,39.52
2022-08-24T07:21:08.135Z,40.07
2022-08-24T07:23:41.811Z,40.29
2022-08-24T07:26:20.807Z,40.86
2022-08-24T07:29:04.948Z,41.50
2022-08-24T07:31:35.549Z,41.89
2022-08-24T07:34:04.024Z,41.93
2022-08-24T07:36:30.852Z,41.79
2022-08-24T07:38:58.361Z,42.35
2022-08-24T07:44:13.700Z,42.83
2022-08-24T07:46:41.636Z,43.09
2022-08-24T07:49:29.273Z,43.28
2022-08-24T07:52:03.461Z,42.79
2022-08-24T07:54:30.047Z,42.76
2022-08-24T07:56:59.861Z,42.74
2022-08-24T07:59:26.399Z,42.74
2022-08-24T08:01:53.006Z,42.65
2022-08-24T08:04:22.108Z,42.30
2022-08-24T08:06:49.302Z,41.36
2022-08-24T08:09:16.003Z,41.04
2022-08-24T08:11:42.571Z,40.32
2022-08-24T08:14:09.200Z,39.94
2022-08-24T08:16:35.932Z,39.87
2022-08-24T08:19:12.255Z,40.22
2022-08-24T08:22:12.448Z,39.98
2022-08-24T08:24:43.856Z,40.24
2022-08-24T08:27:12.108Z,40.28
2022-08-24T08:29:43.376Z,40.82
2022-08-24T08:32:16.999Z,41.34
2022-08-24T08:34:44.859Z,41.00
2022-08-24T08:37:12.369Z,41.31
2022-08-24T08:39:40.590Z,41.72
2022-08-24T08:42:58.708Z,42.31
2022-08-24T08:45:39.619Z,41.59
2022-08-24T08:48:32.345Z,40.21
2022-08-24T08:51:04.927Z,39.53
2022-08-24T08:53:45.334Z,40.33
2022-08-24T08:56:35.901Z,40.61
2022-08-24T08:59:27.338Z,40.59
2022-08-24T09:02:11.396Z,39.94
2022-08-24T09:05:19.565Z,39.27
2022-08-24T09:08:09.009Z,38.79
2022-08-24T09:10:44.748Z,38.15
2022-08-24T09:13:35.943Z,37.60
2022-08-24T09:16:21.052Z,37.17
2022-08-24T09:19:25.999Z,36.99
2022-08-24T09:22:03.286Z,37.26
2022-08-24T09:24:51.552Z,37.35
2022-08-24T09:27:33.190Z,36.51
2022-08-24T09:30:18.585Z,36.40
2022-08-24T09:33:10.451Z,36.78
2022-08-24T09:35:58.625Z,37.35
2022-08-24T09:38:57.173Z,37.57
2022-08-24T09:41:54.059Z,37.46
2022-08-24T09:44:40.367Z,37.09
2022-08-24T09:47:40.666Z,37.24
2022-08-24T09:50:07.205Z,37.56
2022-08-24T09:52:55.307Z,37.60
2022-08-24T09:55:33.685Z,37.58
2022-08-24T09:58:22.862Z,37.22
2022-08-24T10:01:10.318Z,37.21
2022-08-24T10:04:07.368Z,36.97
2022-08-24T10:06:53.383Z,36.88
2022-08-24T10:09:52.562Z,36.78
2022-08-24T10:12:43.383Z,37.00
2022-08-24T10:15:19.044Z,36.78
2022-08-24T10:17:54.581Z,36.94
2022-08-24T10:20:29.232Z,37.03
2022-08-24T10:23:11.071Z,37.10
2022-08-24T10:25:44.320Z,36.83
2022-08-24T10:28:44.728Z,36.68
2022-08-24T10:31:39.100Z,36.69
2022-08-24T10:34:43.690Z,36.57
2022-08-24T10:37:42.382Z,36.39
2022-08-24T10:40:28.752Z,35.82
2022-08-24T10:43:31.049Z,35.63
2022-08-24T10:46:19.487Z,35.68
2022-08-24T10:49:18.789Z,35.83
2022-08-24T10:52:09.154Z,36.09
2022-08-24T10:54:39.578Z,36.35
2022-08-24T10:57:15.321Z,36.33
2022-08-24T10:59:54.009Z,36.15
2022-08-24T11:02:26.452Z,35.67
2022-08-24T11:05:01.356Z,35.22
2022-08-24T11:07:28.885Z,34.87
2022-08-24T11:10:01.830Z,34.61
2022-08-24T11:12:33.383Z,34.51
2022-08-24T11:15:19.168Z,34.24
2022-08-24T11:17:55.121Z,34.32
2022-08-24T11:20:40.269Z,34.57
2022-08-24T11:23:14.842Z,34.92
2022-08-24T11:25:53.338Z,35.05
2022-08-24T11:28:22.752Z,35.41
2022-08-24T11:30:49.418Z,35.92
2022-08-24T11:33:35.287Z,35.82
2022-08-24T11:36:02.726Z,35.93
2022-08-24T11:38:34.913Z,36.39
2022-08-24T11:41:33.367Z,36.73
2022-08-24T11:44:08.513Z,36.66
2022-08-24T11:46:57.272Z,36.76
2022-08-24T11:49:37.123Z,36.73
2022-08-24T11:52:15.977Z,36.54
2022-08-24T11:55:15.209Z,36.53
2022-08-24T11:57:55.789Z,36.53
2022-08-24T12:00:26.958Z,36.46
2022-08-24T12:03:10.546Z,36.82
2022-08-24T12:05:40.028Z,37.07
2022-08-24T12:08:31.206Z,37.25
2022-08-24T12:11:29.783Z,37.23
2022-08-24T12:14:09.894Z,36.39
2022-08-24T12:16:59.702Z,36.22
2022-08-24T12:19:31.559Z,36.40
2022-08-24T12:22:03.506Z,36.41
2022-08-24T12:24:45.687Z,35.94
2022-08-24T12:27:18.107Z,36.10
2022-08-24T12:29:51.679Z,35.73
2022-08-24T12:32:30.497Z,35.52
2022-08-24T12:35:09.131Z,35.58
2022-08-24T12:38:11.160Z,35.61
2022-08-24T12:40:48.114Z,35.74
2022-08-24T12:43:39.134Z,35.66
2022-08-24T12:46:06.949Z,35.79
2022-08-24T12:48:37.579Z,35.96
2022-08-24T12:51:32.509Z,36.03
2022-08-24T12:54:12.342Z,36.35
2022-08-24T12:56:47.936Z,36.59
2022-08-24T12:59:25.541Z,36.76
2022-08-24T13:02:08.216Z,36.90
2022-08-24T13:04:49.955Z,36.62
2022-08-24T13:07:19.502Z,36.31
2022-08-24T13:09:49.386Z,36.40
2022-08-24T13:12:43.945Z,36.76
2022-08-24T13:15:31.603Z,36.91
2022-08-24T13:18:13.976Z,37.15
2022-08-24T13:20:43.838Z,37.19
2022-08-24T13:23:16.186Z,37.24
2022-08-24T13:25:51.645Z,37.11
2022-08-24T13:28:21.021Z,37.03
2022-08-24T13:30:53.926Z,37.13
2022-08-24T13:33:42.093Z,37.13
2022-08-24T13:36:31.674Z,36.74
2022-08-24T13:39:04.898Z,36.41
2022-08-24T13:41:37.415Z,36.19
2022-08-24T13:44:22.358Z,36.18
2022-08-24T13:47:20.268Z,35.79
2022-08-24T13:50:37.875Z,35.63
2022-08-24T13:53:35.203Z,35.45
2022-08-24T13:56:28.318Z,35.38
2022-08-24T13:59:36.296Z,35.27
2022-08-24T14:02:27.628Z,35.11
2022-08-24T14:05:30.852Z,34.97
2022-08-24T14:08:10.368Z,34.86
2022-08-24T14:10:55.590Z,34.78
2022-08-24T14:13:47.909Z,34.88
2022-08-24T14:16:57.567Z,35.04
2022-08-24T14:19:53.970Z,34.73
2022-08-24T14:22:23.535Z,34.72
2022-08-24T14:25:12.447Z,34.54
2022-08-24T14:27:42.641Z,34.39
2022-08-24T14:30:20.473Z,34.40
2022-08-24T14:32:59.266Z,34.09
2022-08-24T14:35:38.287Z,34.16
2022-08-24T14:38:26.422Z,34.35
2022-08-24T14:40:52.935Z,34.25
2022-08-24T14:43:38.100Z,34.22
2022-08-24T14:46:10.446Z,34.28
2022-08-24T14:49:24.632Z,34.38
2022-08-24T14:51:51.436Z,34.52
2022-08-24T14:54:17.883Z,34.63
2022-08-24T14:56:59.856Z,34.53
2022-08-24T15:00:04.460Z,34.61
2022-08-24T15:02:55.943Z,34.66
2022-08-24T15:05:31.666Z,34.64
2022-08-24T15:08:06.176Z,34.66
2022-08-24T15:10:39.102Z,34.67
2022-08-24T15:13:27.449Z,34.63
2022-08-24T15:16:08.041Z,34.48
2022-08-24T15:18:45.545Z,34.17
2022-08-24T15:21:24.369Z,34.11
2022-08-24T15:24:33.043Z,34.13
2022-08-24T15:27:24.029Z,34.10
2022-08-24T15:30:02.908Z,33.88
2022-08-24T15:32:51.960Z,33.88
2022-08-24T15:35:32.883Z,33.76
2022-08-24T15:38:18.324Z,33.76
2022-08-24T15:40:46.404Z,33.69
2022-08-24T15:43:14.512Z,33.69
2022-08-24T15:45:49.679Z,33.84
2022-08-24T15:48:19.683Z,33.83
2022-08-24T15:50:48.544Z,33.74
2022-08-24T15:53:30.156Z,33.85
2022-08-24T15:55:57.322Z,33.86
2022-08-24T15:58:36.597Z,33.75
2022-08-24T16:01:29.545Z,33.67
2022-08-24T16:04:06.683Z,33.51
2022-08-24T16:06:33.124Z,33.50
2022-08-24T16:09:04.154Z,33.37
2022-08-24T16:11:38.459Z,33.42
2022-08-24T16:14:11.373Z,33.43
2022-08-24T16:16:43.724Z,33.40
2022-08-24T16:19:40.001Z,33.38
2022-08-24T16:22:12.611Z,33.33
2022-08-24T16:24:41.619Z,33.22
2022-08-24T16:27:08.090Z,33.10
2022-08-24T16:29:38.821Z,33.02
2022-08-24T16:32:31.993Z,32.93
2022-08-24T16:35:08.470Z,32.81
2022-08-24T16:37:35.407Z,32.79
2022-08-24T16:40:02.094Z,32.73
2022-08-24T16:42:30.380Z,32.66
2022-08-24T16:44:59.191Z,32.57
2022-08-24T16:47:28.949Z,32.46
2022-08-24T16:49:55.890Z,32.36
2022-08-24T16:52:22.804Z,32.33
2022-08-24T16:54:50.433Z,32.31
2022-08-24T16:57:20.952Z,32.32
2022-08-24T16:59:49.068Z,32.34
2022-08-24T17:02:18.271Z,32.36
2022-08-24T17:04:45.153Z,32.34
2022-08-24T17:07:15.618Z,32.27
2022-08-24T17:09:44.621Z,32.22
2022-08-24T17:12:11.641Z,32.14
2022-08-24T17:14:39.662Z,32.03
2022-08-24T17:17:10.262Z,31.96
2022-08-24T17:19:37.757Z,31.84
2022-08-24T17:22:08.895Z,31.72
2022-08-24T17:24:39.027Z,31.64
2022-08-24T17:27:06.938Z,31.54
2022-08-24T17:29:36.080Z,31.39
2022-08-24T17:32:02.949Z,31.31
2022-08-24T17:34:32.234Z,30.94
2022-08-24T17:36:59.032Z,31.09
2022-08-24T17:39:25.765Z,31.01
2022-08-24T17:41:54.046Z,30.93
2022-08-24T17:44:25.814Z,30.86
2022-08-24T17:46:55.323Z,30.80
2022-08-24T17:49:22.134Z,30.75
2022-08-24T17:51:51.020Z,30.68
2022-08-24T17:54:18.209Z,30.63
2022-08-24T17:56:50.883Z,30.54
2022-08-24T17:59:29.684Z,30.43
2022-08-24T18:01:59.887Z,30.39
2022-08-24T18:04:29.839Z,30.31
2022-08-24T18:06:58.601Z,30.25
2022-08-24T18:09:33.003Z,30.17
2022-08-24T18:12:05.527Z,30.09
2022-08-24T18:14:35.196Z,30.01
2022-08-24T18:17:04.706Z,29.97
2022-08-24T18:19:33.812Z,29.92
2022-08-24T18:22:01.911Z,29.83
2022-08-24T18:24:32.571Z,29.76
2022-08-24T18:27:18.194Z,29.69
2022-08-24T18:29:46.757Z,29.62
2022-08-24T18:32:21.515Z,29.51
2022-08-24T18:34:48.097Z,29.38
2022-08-24T18:37:15.039Z,29.36
2022-08-24T18:39:41.560Z,29.32
2022-08-24T18:42:11.497Z,29.23
2022-08-24T18:44:39.522Z,29.17
2022-08-24T18:47:07.287Z,29.10
2022-08-24T18:49:36.331Z,28.97
2022-08-24T18:52:03.700Z,28.94
2022-08-24T18:54:36.378Z,28.86
2022-08-24T18:57:07.049Z,28.76
2022-08-24T18:59:35.439Z,28.67
2022-08-24T19:02:32.874Z,28.60
2022-08-24T19:05:06.462Z,28.50
2022-08-24T19:07:39.875Z,28.43
2022-08-24T19:10:08.983Z,28.36
2022-08-24T19:12:40.409Z,28.27
2022-08-24T19:15:31.942Z,28.20
2022-08-24T19:17:58.920Z,28.07
2022-08-24T19:20:27.924Z,28.03
2022-08-24T19:23:04.973Z,27.96
2022-08-24T19:25:32.211Z,27.89
2022-08-24T19:27:58.781Z,27.79
2022-08-24T19:30:27.945Z,27.74
2022-08-24T19:32:59.320Z,27.61
2022-08-24T19:35:26.421Z,27.53
2022-08-24T19:37:54.047Z,27.38
2022-08-24T19:40:21.061Z,27.27
2022-08-24T19:42:50.953Z,27.22
2022-08-24T19:45:53.180Z,27.11
2022-08-24T19:48:19.796Z,27.09
2022-08-24T19:50:46.385Z,27.08
2022-08-24T19:53:13.468Z,27.09
2022-08-24T19:55:40.110Z,27.16
2022-08-24T19:58:23.754Z,27.15
2022-08-24T20:00:57.745Z,27.13
2022-08-24T20:03:25.010Z,27.05
2022-08-24T20:05:51.837Z,27.07
2022-08-24T20:08:19.993Z,27.02
2022-08-24T20:10:47.125Z,26.93
2022-08-24T20:13:16.244Z,26.92
2022-08-24T20:15:43.040Z,26.81
2022-08-24T20:18:09.815Z,26.78
2022-08-24T20:20:36.413Z,26.76
2022-08-24T20:23:06.348Z,26.71
2022-08-24T20:25:39.991Z,26.67
2022-08-24T20:28:28.291Z,26.60
2022-08-24T20:30:56.086Z,26.55
2022-08-24T20:33:23.847Z,26.57
2022-08-24T20:35:50.967Z,26.57
2022-08-24T20:38:20.092Z,26.58
2022-08-24T20:40:48.046Z,26.56
2022-08-24T20:43:14.654Z,26.56
2022-08-24T20:45:41.792Z,26.53
2022-08-24T20:48:12.114Z,26.51
2022-08-24T20:50:39.519Z,26.48
2022-08-24T20:53:06.433Z,26.45
2022-08-24T20:55:33.119Z,26.42
2022-08-24T20:58:03.504Z,26.36
2022-08-24T21:00:32.262Z,26.30
2022-08-24T21:02:58.858Z,26.23
2022-08-24T21:05:25.545Z,26.05
2022-08-24T21:07:52.152Z,26.07
2022-08-24T21:10:21.414Z,26.03
2022-08-24T21:12:52.613Z,25.95
2022-08-24T21:15:19.356Z,25.91
2022-08-24T21:17:45.865Z,25.87
2022-08-24T21:20:18.024Z,25.89
2022-08-24T21:22:46.170Z,25.84
2022-08-24T21:25:14.465Z,25.82
2022-08-24T21:27:44.155Z,25.79
2022-08-24T21:30:14.915Z,25.70
2022-08-24T21:33:00.328Z,25.67
2022-08-24T21:35:27.058Z,25.63
2022-08-24T21:37:53.978Z,25.60
2022-08-24T21:40:21.912Z,25.54
2022-08-24T21:42:49.108Z,25.44
2022-08-24T21:45:15.835Z,25.34
2022-08-24T21:47:42.650Z,25.31
2022-08-24T21:50:09.997Z,25.32
2022-08-24T21:52:37.255Z,25.31
2022-08-24T21:55:09.667Z,25.25
2022-08-24T21:57:40.485Z,25.26
2022-08-24T22:00:11.850Z,25.22
2022-08-24T22:02:38.988Z,25.18
2022-08-24T22:05:06.100Z,25.16
2022-08-24T22:07:32.783Z,25.15
2022-08-24T22:09:59.554Z,25.14
2022-08-24T22:12:26.180Z,25.10
2022-08-24T22:14:52.755Z,25.08
2022-08-24T22:17:19.275Z,25.03
2022-08-24T22:19:45.848Z,25.05
2022-08-24T22:22:12.376Z,25.00
2022-08-24T22:24:38.935Z,25.00
2022-08-24T22:27:05.600Z,24.93
2022-08-24T22:29:33.486Z,24.92
2022-08-24T22:32:00.108Z,24.84
2022-08-24T22:34:26.678Z,24.84
2022-08-24T22:36:56.873Z,24.79
2022-08-24T22:39:23.474Z,24.74
2022-08-24T22:41:50.021Z,24.71
2022-08-24T22:44:21.263Z,24.67
2022-08-24T22:46:54.168Z,24.64
2022-08-24T22:49:22.878Z,24.57
2022-08-24T22:51:49.722Z,24.40
2022-08-24T22:54:17.403Z,24.52
2022-08-24T22:56:47.413Z,24.46
2022-08-24T22:59:20.247Z,24.44
2022-08-24T23:01:48.794Z,24.40
2022-08-24T23:04:21.362Z,24.36
2022-08-24T23:06:48.007Z,24.31
2022-08-24T23:09:14.692Z,24.24
2022-08-24T23:11:42.303Z,24.22
2022-08-24T23:14:10.076Z,24.17
2022-08-24T23:16:38.707Z,24.08
2022-08-24T23:19:25.547Z,24.08
2022-08-24T23:21:53.785Z,23.99
2022-08-24T23:24:20.824Z,24.01
2022-08-24T23:26:50.201Z,23.91
2022-08-24T23:29:17.373Z,23.92
2022-08-24T23:31:47.356Z,23.89
2022-08-24T23:34:15.165Z,23.84
2022-08-24T23:36:43.225Z,23.79
2022-08-24T23:39:11.695Z,23.63
2022-08-24T23:41:42.536Z,23.72
2022-08-24T23:44:13.921Z,23.68
2022-08-24T23:46:41.175Z,23.67
2022-08-24T23:49:08.786Z,23.62
2022-08-24T23:51:36.437Z,23.60
2022-08-24T23:54:03.657Z,23.52
2022-08-24T23:56:33.255Z,23.54
2022-08-24T23:59:03.404Z,23.50
